sensor_id;sensor_type;location;lat;lon;timestamp;temperature;humidity
21495;DHT22;10909;53.590;10.054;2022-11-20T00:00:08;5.90;68.80
21495;DHT22;10909;53.590;10.054;2022-11-20T00:02:35;5.90;68.90
21495;DHT22;10909;53.590;10.054;2022-11-20T00:05:04;5.90;68.90
21495;DHT22;10909;53.590;10.054;2022-11-20T00:07:32;5.90;69.00
21495;DHT22;10909;53.590;10.054;2022-11-20T00:09:57;6.00;69.10
21495;DHT22;10909;53.590;10.054;2022-11-20T00:12:23;5.90;69.10
21495;DHT22;10909;53.590;10.054;2022-11-20T00:14:48;5.90;69.10
21495;DHT22;10909;53.590;10.054;2022-11-20T00:17:14;5.90;69.10
21495;DHT22;10909;53.590;10.054;2022-11-20T00:19:42;5.90;69.00
21495;DHT22;10909;53.590;10.054;2022-11-20T00:22:09;5.90;68.90
21495;DHT22;10909;53.590;10.054;2022-11-20T00:24:42;5.90;68.80
21495;DHT22;10909;53.590;10.054;2022-11-20T00:27:07;5.90;69.00
21495;DHT22;10909;53.590;10.054;2022-11-20T00:29:35;6.00;69.10
21495;DHT22;10909;53.590;10.054;2022-11-20T00:32:05;5.90;69.00
21495;DHT22;10909;53.590;10.054;2022-11-20T00:34:31;5.90;68.90
21495;DHT22;10909;53.590;10.054;2022-11-20T00:36:57;5.90;68.90
21495;DHT22;10909;53.590;10.054;2022-11-20T00:39:23;5.90;68.90
21495;DHT22;10909;53.590;10.054;2022-11-20T00:41:50;5.90;68.90
21495;DHT22;10909;53.590;10.054;2022-11-20T00:44:18;5.80;69.00
21495;DHT22;10909;53.590;10.054;2022-11-20T00:46:43;5.80;69.00
21495;DHT22;10909;53.590;10.054;2022-11-20T00:49:09;5.80;69.10
21495;DHT22;10909;53.590;10.054;2022-11-20T00:51:34;5.80;69.10
21495;DHT22;10909;53.590;10.054;2022-11-20T00:54:00;5.70;69.20
21495;DHT22;10909;53.590;10.054;2022-11-20T00:56:27;5.70;69.10
21495;DHT22;10909;53.590;10.054;2022-11-20T00:58:53;5.70;69.20
21495;DHT22;10909;53.590;10.054;2022-11-20T01:01:21;5.70;69.30
21495;DHT22;10909;53.590;10.054;2022-11-20T01:03:51;5.70;69.40
21495;DHT22;10909;53.590;10.054;2022-11-20T01:08:45;5.70;69.40
21495;DHT22;10909;53.590;10.054;2022-11-20T01:11:17;5.70;69.50
21495;DHT22;10909;53.590;10.054;2022-11-20T01:13:45;5.70;69.50
21495;DHT22;10909;53.590;10.054;2022-11-20T01:16:22;5.70;69.50
21495;DHT22;10909;53.590;10.054;2022-11-20T01:18:50;5.70;69.60
21495;DHT22;10909;53.590;10.054;2022-11-20T01:21:22;5.70;69.60
21495;DHT22;10909;53.590;10.054;2022-11-20T01:23:50;5.70;69.60
21495;DHT22;10909;53.590;10.054;2022-11-20T01:26:19;5.70;69.60
21495;DHT22;10909;53.590;10.054;2022-11-20T01:28:45;5.70;69.70
21495;DHT22;10909;53.590;10.054;2022-11-20T01:31:38;5.60;69.60
21495;DHT22;10909;53.590;10.054;2022-11-20T01:34:10;5.70;69.70
21495;DHT22;10909;53.590;10.054;2022-11-20T01:36:38;5.60;69.60
21495;DHT22;10909;53.590;10.054;2022-11-20T01:39:07;5.60;69.60
21495;DHT22;10909;53.590;10.054;2022-11-20T01:41:34;5.60;69.70
21495;DHT22;10909;53.590;10.054;2022-11-20T01:44:22;5.60;69.90
21495;DHT22;10909;53.590;10.054;2022-11-20T01:47:03;5.60;70.00
21495;DHT22;10909;53.590;10.054;2022-11-20T01:49:35;5.60;70.10
21495;DHT22;10909;53.590;10.054;2022-11-20T01:54:47;5.70;70.40
21495;DHT22;10909;53.590;10.054;2022-11-20T01:57:15;5.60;70.40
21495;DHT22;10909;53.590;10.054;2022-11-20T01:59:45;5.60;70.30
21495;DHT22;10909;53.590;10.054;2022-11-20T02:02:14;5.70;70.40
21495;DHT22;10909;53.590;10.054;2022-11-20T02:04:40;5.60;70.40
21495;DHT22;10909;53.590;10.054;2022-11-20T02:07:06;5.60;70.40
21495;DHT22;10909;53.590;10.054;2022-11-20T02:09:33;5.60;70.40
21495;DHT22;10909;53.590;10.054;2022-11-20T02:11:59;5.60;70.40
21495;DHT22;10909;53.590;10.054;2022-11-20T02:14:25;5.60;70.50
21495;DHT22;10909;53.590;10.054;2022-11-20T02:16:52;5.70;70.60
21495;DHT22;10909;53.590;10.054;2022-11-20T02:19:30;5.70;70.70
21495;DHT22;10909;53.590;10.054;2022-11-20T02:22:08;5.70;70.80
21495;DHT22;10909;53.590;10.054;2022-11-20T02:24:35;5.70;70.70
21495;DHT22;10909;53.590;10.054;2022-11-20T02:27:15;5.70;70.50
21495;DHT22;10909;53.590;10.054;2022-11-20T02:29:57;5.70;70.60
21495;DHT22;10909;53.590;10.054;2022-11-20T02:32:30;5.70;70.70
21495;DHT22;10909;53.590;10.054;2022-11-20T02:34:56;5.70;70.60
21495;DHT22;10909;53.590;10.054;2022-11-20T02:37:24;5.70;70.60
21495;DHT22;10909;53.590;10.054;2022-11-20T02:39:55;5.70;70.70
21495;DHT22;10909;53.590;10.054;2022-11-20T02:42:21;5.70;70.70
21495;DHT22;10909;53.590;10.054;2022-11-20T02:44:46;5.60;70.70
21495;DHT22;10909;53.590;10.054;2022-11-20T02:47:12;5.70;70.80
21495;DHT22;10909;53.590;10.054;2022-11-20T02:49:38;5.60;70.60
21495;DHT22;10909;53.590;10.054;2022-11-20T02:52:05;5.60;70.50
21495;DHT22;10909;53.590;10.054;2022-11-20T02:54:33;5.60;70.50
21495;DHT22;10909;53.590;10.054;2022-11-20T02:56:59;5.60;70.50
21495;DHT22;10909;53.590;10.054;2022-11-20T02:59:25;5.60;70.70
21495;DHT22;10909;53.590;10.054;2022-11-20T03:01:51;5.60;70.70
21495;DHT22;10909;53.590;10.054;2022-11-20T03:04:20;5.60;70.70
21495;DHT22;10909;53.590;10.054;2022-11-20T03:06:46;5.60;70.80
21495;DHT22;10909;53.590;10.054;2022-11-20T03:09:15;5.50;70.60
21495;DHT22;10909;53.590;10.054;2022-11-20T03:11:50;5.60;70.80
21495;DHT22;10909;53.590;10.054;2022-11-20T03:14:19;5.50;71.50
21495;DHT22;10909;53.590;10.054;2022-11-20T03:16:56;5.50;70.80
21495;DHT22;10909;53.590;10.054;2022-11-20T03:19:26;5.50;70.80
21495;DHT22;10909;53.590;10.054;2022-11-20T03:21:52;5.50;70.80
21495;DHT22;10909;53.590;10.054;2022-11-20T03:24:18;5.50;70.90
21495;DHT22;10909;53.590;10.054;2022-11-20T03:26:46;5.50;70.80
21495;DHT22;10909;53.590;10.054;2022-11-20T03:29:12;5.50;71.00
21495;DHT22;10909;53.590;10.054;2022-11-20T03:31:40;5.50;71.00
21495;DHT22;10909;53.590;10.054;2022-11-20T03:34:06;5.50;71.10
21495;DHT22;10909;53.590;10.054;2022-11-20T03:36:32;5.50;71.10
21495;DHT22;10909;53.590;10.054;2022-11-20T03:38:58;5.50;71.10
21495;DHT22;10909;53.590;10.054;2022-11-20T03:41:25;5.60;71.20
21495;DHT22;10909;53.590;10.054;2022-11-20T03:43:56;5.60;71.20
21495;DHT22;10909;53.590;10.054;2022-11-20T03:46:23;5.70;71.20
21495;DHT22;10909;53.590;10.054;2022-11-20T03:48:50;5.60;71.10
21495;DHT22;10909;53.590;10.054;2022-11-20T03:51:21;5.60;71.10
21495;DHT22;10909;53.590;10.054;2022-11-20T03:53:50;5.60;71.00
21495;DHT22;10909;53.590;10.054;2022-11-20T03:56:20;5.60;70.90
21495;DHT22;10909;53.590;10.054;2022-11-20T03:58:46;5.60;70.90
21495;DHT22;10909;53.590;10.054;2022-11-20T04:01:16;5.50;71.00
21495;DHT22;10909;53.590;10.054;2022-11-20T04:03:43;5.60;71.10
21495;DHT22;10909;53.590;10.054;2022-11-20T04:06:18;5.60;71.00
21495;DHT22;10909;53.590;10.054;2022-11-20T04:08:44;5.50;71.00
21495;DHT22;10909;53.590;10.054;2022-11-20T04:13:35;5.50;71.00
21495;DHT22;10909;53.590;10.054;2022-11-20T04:16:01;5.50;71.00
21495;DHT22;10909;53.590;10.054;2022-11-20T04:18:27;5.50;71.00
21495;DHT22;10909;53.590;10.054;2022-11-20T04:20:56;5.50;71.00
21495;DHT22;10909;53.590;10.054;2022-11-20T04:23:22;5.50;71.10
21495;DHT22;10909;53.590;10.054;2022-11-20T04:25:50;5.50;71.00
21495;DHT22;10909;53.590;10.054;2022-11-20T04:28:15;5.50;71.10
21495;DHT22;10909;53.590;10.054;2022-11-20T04:30:41;5.50;71.10
21495;DHT22;10909;53.590;10.054;2022-11-20T04:33:07;5.50;71.00
21495;DHT22;10909;53.590;10.054;2022-11-20T04:35:37;5.50;71.00
21495;DHT22;10909;53.590;10.054;2022-11-20T04:38:03;5.50;71.20
21495;DHT22;10909;53.590;10.054;2022-11-20T04:40:29;5.50;71.10
21495;DHT22;10909;53.590;10.054;2022-11-20T04:42:55;5.50;71.20
21495;DHT22;10909;53.590;10.054;2022-11-20T04:45:22;5.50;71.10
21495;DHT22;10909;53.590;10.054;2022-11-20T04:47:47;5.50;71.20
21495;DHT22;10909;53.590;10.054;2022-11-20T04:50:13;5.60;71.30
21495;DHT22;10909;53.590;10.054;2022-11-20T04:52:40;5.50;71.20
21495;DHT22;10909;53.590;10.054;2022-11-20T04:55:07;5.50;71.10
21495;DHT22;10909;53.590;10.054;2022-11-20T04:57:33;5.50;71.30
21495;DHT22;10909;53.590;10.054;2022-11-20T05:00:01;5.50;71.30
21495;DHT22;10909;53.590;10.054;2022-11-20T05:02:27;5.50;71.30
21495;DHT22;10909;53.590;10.054;2022-11-20T05:04:53;5.50;71.40
21495;DHT22;10909;53.590;10.054;2022-11-20T05:07:19;5.40;71.30
21495;DHT22;10909;53.590;10.054;2022-11-20T05:09:45;5.40;71.30
21495;DHT22;10909;53.590;10.054;2022-11-20T05:12:12;5.50;71.30
21495;DHT22;10909;53.590;10.054;2022-11-20T05:14:38;5.50;71.40
21495;DHT22;10909;53.590;10.054;2022-11-20T05:17:03;5.40;71.30
21495;DHT22;10909;53.590;10.054;2022-11-20T05:19:29;5.40;71.30
21495;DHT22;10909;53.590;10.054;2022-11-20T05:21:54;5.40;71.40
21495;DHT22;10909;53.590;10.054;2022-11-20T05:24:21;5.40;71.50
21495;DHT22;10909;53.590;10.054;2022-11-20T05:26:47;5.40;71.30
21495;DHT22;10909;53.590;10.054;2022-11-20T05:29:15;5.50;71.50
21495;DHT22;10909;53.590;10.054;2022-11-20T05:31:41;5.50;71.50
21495;DHT22;10909;53.590;10.054;2022-11-20T05:34:07;5.40;71.40
21495;DHT22;10909;53.590;10.054;2022-11-20T05:36:33;5.40;71.40
21495;DHT22;10909;53.590;10.054;2022-11-20T05:38:59;5.40;71.50
21495;DHT22;10909;53.590;10.054;2022-11-20T05:41:25;5.40;71.40
21495;DHT22;10909;53.590;10.054;2022-11-20T05:43:52;5.30;71.40
21495;DHT22;10909;53.590;10.054;2022-11-20T05:46:19;5.30;71.50
21495;DHT22;10909;53.590;10.054;2022-11-20T05:48:46;5.30;72.00
21495;DHT22;10909;53.590;10.054;2022-11-20T05:51:17;5.30;72.30
21495;DHT22;10909;53.590;10.054;2022-11-20T05:53:43;5.30;71.70
21495;DHT22;10909;53.590;10.054;2022-11-20T05:56:12;5.30;71.70
21495;DHT22;10909;53.590;10.054;2022-11-20T05:58:39;5.30;71.80
21495;DHT22;10909;53.590;10.054;2022-11-20T06:01:25;5.30;71.70
21495;DHT22;10909;53.590;10.054;2022-11-20T06:03:52;5.20;71.70
21495;DHT22;10909;53.590;10.054;2022-11-20T06:06:19;5.20;71.60
21495;DHT22;10909;53.590;10.054;2022-11-20T06:08:45;5.20;71.70
21495;DHT22;10909;53.590;10.054;2022-11-20T06:11:12;5.20;71.80
21495;DHT22;10909;53.590;10.054;2022-11-20T06:13:39;5.20;71.90
21495;DHT22;10909;53.590;10.054;2022-11-20T06:16:06;5.10;71.80
21495;DHT22;10909;53.590;10.054;2022-11-20T06:18:33;5.20;71.90
21495;DHT22;10909;53.590;10.054;2022-11-20T06:21:16;5.20;71.90
21495;DHT22;10909;53.590;10.054;2022-11-20T06:23:43;5.20;72.00
21495;DHT22;10909;53.590;10.054;2022-11-20T06:26:12;5.00;72.50
21495;DHT22;10909;53.590;10.054;2022-11-20T06:28:39;5.20;72.00
21495;DHT22;10909;53.590;10.054;2022-11-20T06:31:06;5.20;72.00
21495;DHT22;10909;53.590;10.054;2022-11-20T06:33:33;5.20;72.00
21495;DHT22;10909;53.590;10.054;2022-11-20T06:36:01;5.20;72.10
21495;DHT22;10909;53.590;10.054;2022-11-20T06:38:28;5.10;72.10
21495;DHT22;10909;53.590;10.054;2022-11-20T06:40:55;5.20;72.10
21495;DHT22;10909;53.590;10.054;2022-11-20T06:43:22;5.20;72.10
21495;DHT22;10909;53.590;10.054;2022-11-20T06:45:53;5.20;72.00
21495;DHT22;10909;53.590;10.054;2022-11-20T06:48:19;5.20;72.10
21495;DHT22;10909;53.590;10.054;2022-11-20T06:50:45;5.20;72.10
21495;DHT22;10909;53.590;10.054;2022-11-20T06:53:12;5.20;72.00
21495;DHT22;10909;53.590;10.054;2022-11-20T06:55:42;5.20;72.00
21495;DHT22;10909;53.590;10.054;2022-11-20T06:58:09;5.20;72.00
21495;DHT22;10909;53.590;10.054;2022-11-20T07:00:35;5.20;71.90
21495;DHT22;10909;53.590;10.054;2022-11-20T07:03:04;5.20;71.90
21495;DHT22;10909;53.590;10.054;2022-11-20T07:05:30;5.20;71.90
21495;DHT22;10909;53.590;10.054;2022-11-20T07:07:57;5.20;71.70
21495;DHT22;10909;53.590;10.054;2022-11-20T07:10:23;5.20;71.80
21495;DHT22;10909;53.590;10.054;2022-11-20T07:12:51;5.20;71.90
21495;DHT22;10909;53.590;10.054;2022-11-20T07:15:19;5.10;71.90
21495;DHT22;10909;53.590;10.054;2022-11-20T07:17:46;5.10;72.00
21495;DHT22;10909;53.590;10.054;2022-11-20T07:20:14;5.10;72.00
21495;DHT22;10909;53.590;10.054;2022-11-20T07:22:40;5.10;72.10
21495;DHT22;10909;53.590;10.054;2022-11-20T07:25:07;5.10;72.10
21495;DHT22;10909;53.590;10.054;2022-11-20T07:27:35;5.20;72.00
21495;DHT22;10909;53.590;10.054;2022-11-20T07:30:02;5.20;71.90
21495;DHT22;10909;53.590;10.054;2022-11-20T07:32:28;5.10;71.90
21495;DHT22;10909;53.590;10.054;2022-11-20T07:34:56;5.10;71.90
21495;DHT22;10909;53.590;10.054;2022-11-20T07:37:22;5.10;72.00
21495;DHT22;10909;53.590;10.054;2022-11-20T07:39:47;5.10;72.00
21495;DHT22;10909;53.590;10.054;2022-11-20T07:42:13;5.10;72.00
21495;DHT22;10909;53.590;10.054;2022-11-20T07:44:39;5.10;72.10
21495;DHT22;10909;53.590;10.054;2022-11-20T07:47:04;5.10;72.20
21495;DHT22;10909;53.590;10.054;2022-11-20T07:49:30;5.10;72.30
21495;DHT22;10909;53.590;10.054;2022-11-20T07:51:56;5.20;72.60
21495;DHT22;10909;53.590;10.054;2022-11-20T07:54:22;5.20;72.60
21495;DHT22;10909;53.590;10.054;2022-11-20T07:56:48;5.20;72.50
21495;DHT22;10909;53.590;10.054;2022-11-20T07:59:14;5.30;72.40
21495;DHT22;10909;53.590;10.054;2022-11-20T08:01:41;5.30;72.40
21495;DHT22;10909;53.590;10.054;2022-11-20T08:04:08;5.30;72.40
21495;DHT22;10909;53.590;10.054;2022-11-20T08:06:35;5.30;72.30
21495;DHT22;10909;53.590;10.054;2022-11-20T08:09:00;5.30;72.30
21495;DHT22;10909;53.590;10.054;2022-11-20T08:11:27;5.30;72.30
21495;DHT22;10909;53.590;10.054;2022-11-20T08:14:11;5.30;72.30
21495;DHT22;10909;53.590;10.054;2022-11-20T08:16:46;5.30;72.20
21495;DHT22;10909;53.590;10.054;2022-11-20T08:19:13;5.30;72.20
21495;DHT22;10909;53.590;10.054;2022-11-20T08:21:39;5.40;72.30
21495;DHT22;10909;53.590;10.054;2022-11-20T08:24:06;5.40;72.30
21495;DHT22;10909;53.590;10.054;2022-11-20T08:26:33;5.40;72.20
21495;DHT22;10909;53.590;10.054;2022-11-20T08:28:59;5.40;72.10
21495;DHT22;10909;53.590;10.054;2022-11-20T08:31:25;5.40;72.20
21495;DHT22;10909;53.590;10.054;2022-11-20T08:33:52;5.40;72.10
21495;DHT22;10909;53.590;10.054;2022-11-20T08:36:20;5.40;72.10
21495;DHT22;10909;53.590;10.054;2022-11-20T08:38:51;5.40;72.00
21495;DHT22;10909;53.590;10.054;2022-11-20T08:41:18;5.40;72.00
21495;DHT22;10909;53.590;10.054;2022-11-20T08:44:05;5.40;72.00
21495;DHT22;10909;53.590;10.054;2022-11-20T08:46:37;5.40;72.10
21495;DHT22;10909;53.590;10.054;2022-11-20T08:49:04;5.50;72.20
21495;DHT22;10909;53.590;10.054;2022-11-20T08:51:30;5.50;72.20
21495;DHT22;10909;53.590;10.054;2022-11-20T08:53:59;5.50;72.20
21495;DHT22;10909;53.590;10.054;2022-11-20T08:56:34;5.50;72.30
21495;DHT22;10909;53.590;10.054;2022-11-20T08:59:02;5.60;72.30
21495;DHT22;10909;53.590;10.054;2022-11-20T09:01:28;5.60;72.30
21495;DHT22;10909;53.590;10.054;2022-11-20T09:03:57;5.60;72.40
21495;DHT22;10909;53.590;10.054;2022-11-20T09:06:23;5.60;72.50
21495;DHT22;10909;53.590;10.054;2022-11-20T09:08:54;5.70;72.50
21495;DHT22;10909;53.590;10.054;2022-11-20T09:11:21;5.70;72.30
21495;DHT22;10909;53.590;10.054;2022-11-20T09:13:46;5.80;72.20
21495;DHT22;10909;53.590;10.054;2022-11-20T09:16:12;5.80;72.10
21495;DHT22;10909;53.590;10.054;2022-11-20T09:18:39;5.80;72.00
21495;DHT22;10909;53.590;10.054;2022-11-20T09:21:11;5.80;71.80
21495;DHT22;10909;53.590;10.054;2022-11-20T09:23:38;5.80;71.80
21495;DHT22;10909;53.590;10.054;2022-11-20T09:26:13;5.70;71.70
21495;DHT22;10909;53.590;10.054;2022-11-20T09:28:42;5.70;71.90
21495;DHT22;10909;53.590;10.054;2022-11-20T09:31:22;5.70;71.90
21495;DHT22;10909;53.590;10.054;2022-11-20T09:34:03;5.70;72.00
21495;DHT22;10909;53.590;10.054;2022-11-20T09:36:31;5.70;72.10
21495;DHT22;10909;53.590;10.054;2022-11-20T09:38:59;5.70;72.10
21495;DHT22;10909;53.590;10.054;2022-11-20T09:49:49;5.70;72.70
21495;DHT22;10909;53.590;10.054;2022-11-20T09:52:46;5.80;72.80
21495;DHT22;10909;53.590;10.054;2022-11-20T09:55:18;5.80;72.70
21495;DHT22;10909;53.590;10.054;2022-11-20T09:57:50;5.80;72.60
21495;DHT22;10909;53.590;10.054;2022-11-20T10:00:18;5.80;72.60
21495;DHT22;10909;53.590;10.054;2022-11-20T10:03:13;5.80;72.50
21495;DHT22;10909;53.590;10.054;2022-11-20T10:05:46;5.90;72.60
21495;DHT22;10909;53.590;10.054;2022-11-20T10:08:28;5.90;72.50
21495;DHT22;10909;53.590;10.054;2022-11-20T10:11:08;5.80;72.50
21495;DHT22;10909;53.590;10.054;2022-11-20T10:16:41;5.90;72.60
21495;DHT22;10909;53.590;10.054;2022-11-20T10:21:46;5.90;72.80
21495;DHT22;10909;53.590;10.054;2022-11-20T10:27:30;5.90;72.70
21495;DHT22;10909;53.590;10.054;2022-11-20T10:30:14;6.00;72.50
21495;DHT22;10909;53.590;10.054;2022-11-20T10:32:50;6.10;72.60
21495;DHT22;10909;53.590;10.054;2022-11-20T10:35:22;6.00;72.50
21495;DHT22;10909;53.590;10.054;2022-11-20T10:38:00;6.00;72.40
21495;DHT22;10909;53.590;10.054;2022-11-20T10:40:44;6.10;72.30
21495;DHT22;10909;53.590;10.054;2022-11-20T10:43:26;6.00;72.10
21495;DHT22;10909;53.590;10.054;2022-11-20T10:46:04;6.00;72.00
21495;DHT22;10909;53.590;10.054;2022-11-20T10:48:34;6.00;72.10
21495;DHT22;10909;53.590;10.054;2022-11-20T10:51:12;6.00;72.40
21495;DHT22;10909;53.590;10.054;2022-11-20T10:56:48;6.20;73.20
21495;DHT22;10909;53.590;10.054;2022-11-20T11:02:21;6.40;72.60
21495;DHT22;10909;53.590;10.054;2022-11-20T11:04:54;6.40;72.30
21495;DHT22;10909;53.590;10.054;2022-11-20T11:07:27;6.40;72.10
21495;DHT22;10909;53.590;10.054;2022-11-20T11:09:57;6.40;71.90
21495;DHT22;10909;53.590;10.054;2022-11-20T11:12:28;6.40;71.90
21495;DHT22;10909;53.590;10.054;2022-11-20T11:15:23;6.40;71.90
21495;DHT22;10909;53.590;10.054;2022-11-20T11:17:56;6.50;72.00
21495;DHT22;10909;53.590;10.054;2022-11-20T11:20:25;6.50;72.20
21495;DHT22;10909;53.590;10.054;2022-11-20T11:22:54;6.60;72.40
21495;DHT22;10909;53.590;10.054;2022-11-20T11:25:28;6.60;72.30
21495;DHT22;10909;53.590;10.054;2022-11-20T11:30:47;6.70;71.50
21495;DHT22;10909;53.590;10.054;2022-11-20T11:33:26;6.70;71.20
21495;DHT22;10909;53.590;10.054;2022-11-20T11:36:25;6.70;71.10
21495;DHT22;10909;53.590;10.054;2022-11-20T11:38:56;6.70;71.30
21495;DHT22;10909;53.590;10.054;2022-11-20T11:41:29;6.70;71.50
21495;DHT22;10909;53.590;10.054;2022-11-20T11:44:20;6.80;71.50
21495;DHT22;10909;53.590;10.054;2022-11-20T11:47:13;6.80;71.00
21495;DHT22;10909;53.590;10.054;2022-11-20T11:49:43;6.70;70.80
21495;DHT22;10909;53.590;10.054;2022-11-20T11:52:18;6.70;70.50
21495;DHT22;10909;53.590;10.054;2022-11-20T11:54:55;6.70;70.60
21495;DHT22;10909;53.590;10.054;2022-11-20T12:00:27;6.70;70.70
21495;DHT22;10909;53.590;10.054;2022-11-20T12:05:43;6.70;70.70
21495;DHT22;10909;53.590;10.054;2022-11-20T12:08:26;6.70;70.50
21495;DHT22;10909;53.590;10.054;2022-11-20T12:11:16;6.70;70.30
21495;DHT22;10909;53.590;10.054;2022-11-20T12:13:50;6.70;70.40
21495;DHT22;10909;53.590;10.054;2022-11-20T12:16:19;6.70;70.40
21495;DHT22;10909;53.590;10.054;2022-11-20T12:18:51;6.60;70.40
21495;DHT22;10909;53.590;10.054;2022-11-20T12:21:39;6.70;70.40
21495;DHT22;10909;53.590;10.054;2022-11-20T12:24:24;6.70;70.30
21495;DHT22;10909;53.590;10.054;2022-11-20T12:30:14;6.70;70.20
21495;DHT22;10909;53.590;10.054;2022-11-20T12:38:28;6.60;70.30
21495;DHT22;10909;53.590;10.054;2022-11-20T12:41:02;6.80;70.40
21495;DHT22;10909;53.590;10.054;2022-11-20T12:44:08;6.70;70.70
21495;DHT22;10909;53.590;10.054;2022-11-20T12:47:46;6.80;70.80
21495;DHT22;10909;53.590;10.054;2022-11-20T12:50:34;6.90;70.50
21495;DHT22;10909;53.590;10.054;2022-11-20T12:55:48;7.00;70.20
21495;DHT22;10909;53.590;10.054;2022-11-20T13:06:58;7.10;70.00
21495;DHT22;10909;53.590;10.054;2022-11-20T13:09:26;7.10;69.90
21495;DHT22;10909;53.590;10.054;2022-11-20T13:14:42;7.10;69.70
21495;DHT22;10909;53.590;10.054;2022-11-20T13:17:24;7.10;69.70
21495;DHT22;10909;53.590;10.054;2022-11-20T13:19:57;7.10;69.60
21495;DHT22;10909;53.590;10.054;2022-11-20T13:22:41;7.10;69.70
21495;DHT22;10909;53.590;10.054;2022-11-20T13:25:22;7.10;69.90
21495;DHT22;10909;53.590;10.054;2022-11-20T13:27:50;7.20;69.90
21495;DHT22;10909;53.590;10.054;2022-11-20T13:30:19;7.20;69.70
21495;DHT22;10909;53.590;10.054;2022-11-20T13:33:09;7.20;69.60
21495;DHT22;10909;53.590;10.054;2022-11-20T13:38:50;7.20;69.20
21495;DHT22;10909;53.590;10.054;2022-11-20T13:41:30;7.30;69.20
21495;DHT22;10909;53.590;10.054;2022-11-20T13:46:44;7.30;69.20
21495;DHT22;10909;53.590;10.054;2022-11-20T13:49:33;7.30;69.20
21495;DHT22;10909;53.590;10.054;2022-11-20T13:52:43;7.30;69.10
21495;DHT22;10909;53.590;10.054;2022-11-20T13:58:04;7.30;68.80
21495;DHT22;10909;53.590;10.054;2022-11-20T14:01:07;7.20;68.80
21495;DHT22;10909;53.590;10.054;2022-11-20T14:03:33;7.20;68.80
21495;DHT22;10909;53.590;10.054;2022-11-20T14:06:26;7.10;68.80
21495;DHT22;10909;53.590;10.054;2022-11-20T14:08:53;7.10;68.80
21495;DHT22;10909;53.590;10.054;2022-11-20T14:11:21;7.10;68.90
21495;DHT22;10909;53.590;10.054;2022-11-20T14:14:15;7.10;69.00
21495;DHT22;10909;53.590;10.054;2022-11-20T14:16:43;7.00;68.90
21495;DHT22;10909;53.590;10.054;2022-11-20T14:19:28;7.10;69.00
21495;DHT22;10909;53.590;10.054;2022-11-20T14:24:41;7.10;68.90
21495;DHT22;10909;53.590;10.054;2022-11-20T14:27:23;7.00;68.70
21495;DHT22;10909;53.590;10.054;2022-11-20T14:29:54;7.00;68.60
21495;DHT22;10909;53.590;10.054;2022-11-20T14:32:26;7.00;68.60
21495;DHT22;10909;53.590;10.054;2022-11-20T14:34:55;7.00;68.80
21495;DHT22;10909;53.590;10.054;2022-11-20T14:37:29;6.90;68.80
21495;DHT22;10909;53.590;10.054;2022-11-20T14:39:59;7.00;68.90
21495;DHT22;10909;53.590;10.054;2022-11-20T14:42:28;7.00;69.00
21495;DHT22;10909;53.590;10.054;2022-11-20T14:44:57;6.90;68.90
21495;DHT22;10909;53.590;10.054;2022-11-20T14:47:27;6.90;69.00
21495;DHT22;10909;53.590;10.054;2022-11-20T14:49:59;7.00;69.20
21495;DHT22;10909;53.590;10.054;2022-11-20T14:52:27;7.00;69.20
21495;DHT22;10909;53.590;10.054;2022-11-20T14:54:58;7.10;69.10
21495;DHT22;10909;53.590;10.054;2022-11-20T14:57:32;7.10;69.00
21495;DHT22;10909;53.590;10.054;2022-11-20T15:00:07;7.10;68.80
21495;DHT22;10909;53.590;10.054;2022-11-20T15:02:34;7.10;68.60
21495;DHT22;10909;53.590;10.054;2022-11-20T15:05:01;7.00;68.60
21495;DHT22;10909;53.590;10.054;2022-11-20T15:07:36;7.10;68.50
21495;DHT22;10909;53.590;10.054;2022-11-20T15:10:07;7.00;68.20
21495;DHT22;10909;53.590;10.054;2022-11-20T15:12:40;7.10;68.20
21495;DHT22;10909;53.590;10.054;2022-11-20T15:15:12;7.10;68.20
21495;DHT22;10909;53.590;10.054;2022-11-20T15:17:42;7.00;68.20
21495;DHT22;10909;53.590;10.054;2022-11-20T15:20:15;7.00;68.20
21495;DHT22;10909;53.590;10.054;2022-11-20T15:22:42;7.00;68.30
21495;DHT22;10909;53.590;10.054;2022-11-20T15:25:14;7.00;68.20
21495;DHT22;10909;53.590;10.054;2022-11-20T15:27:43;6.90;68.10
21495;DHT22;10909;53.590;10.054;2022-11-20T15:30:14;6.90;68.20
21495;DHT22;10909;53.590;10.054;2022-11-20T15:32:45;6.90;68.20
21495;DHT22;10909;53.590;10.054;2022-11-20T15:35:12;6.90;68.20
21495;DHT22;10909;53.590;10.054;2022-11-20T15:37:40;6.90;67.70
21495;DHT22;10909;53.590;10.054;2022-11-20T15:40:08;6.90;68.40
21495;DHT22;10909;53.590;10.054;2022-11-20T15:42:39;6.90;68.30
21495;DHT22;10909;53.590;10.054;2022-11-20T15:45:28;6.90;68.40
21495;DHT22;10909;53.590;10.054;2022-11-20T15:47:59;6.80;68.40
21495;DHT22;10909;53.590;10.054;2022-11-20T15:53:40;6.90;68.60
21495;DHT22;10909;53.590;10.054;2022-11-20T15:56:15;6.80;68.50
21495;DHT22;10909;53.590;10.054;2022-11-20T15:58:51;6.90;68.50
21495;DHT22;10909;53.590;10.054;2022-11-20T16:01:21;6.90;68.40
21495;DHT22;10909;53.590;10.054;2022-11-20T16:03:49;6.90;68.30
21495;DHT22;10909;53.590;10.054;2022-11-20T16:06:16;6.90;68.40
21495;DHT22;10909;53.590;10.054;2022-11-20T16:08:47;6.80;68.30
21495;DHT22;10909;53.590;10.054;2022-11-20T16:11:19;6.90;68.30
21495;DHT22;10909;53.590;10.054;2022-11-20T16:13:50;6.90;68.30
21495;DHT22;10909;53.590;10.054;2022-11-20T16:16:37;6.90;68.30
21495;DHT22;10909;53.590;10.054;2022-11-20T16:19:03;6.90;68.30
21495;DHT22;10909;53.590;10.054;2022-11-20T16:21:29;6.90;68.20
21495;DHT22;10909;53.590;10.054;2022-11-20T16:24:03;6.90;68.20
21495;DHT22;10909;53.590;10.054;2022-11-20T16:26:30;6.90;68.10
21495;DHT22;10909;53.590;10.054;2022-11-20T16:29:02;7.00;68.10
21495;DHT22;10909;53.590;10.054;2022-11-20T16:31:30;6.90;67.90
21495;DHT22;10909;53.590;10.054;2022-11-20T16:34:00;6.90;68.00
21495;DHT22;10909;53.590;10.054;2022-11-20T16:36:29;7.00;68.80
21495;DHT22;10909;53.590;10.054;2022-11-20T16:39:09;6.90;67.90
21495;DHT22;10909;53.590;10.054;2022-11-20T16:41:40;6.90;67.90
21495;DHT22;10909;53.590;10.054;2022-11-20T16:44:11;7.00;67.90
21495;DHT22;10909;53.590;10.054;2022-11-20T16:46:39;6.90;67.70
21495;DHT22;10909;53.590;10.054;2022-11-20T16:49:11;7.00;67.80
21495;DHT22;10909;53.590;10.054;2022-11-20T16:51:41;7.00;67.80
21495;DHT22;10909;53.590;10.054;2022-11-20T16:54:09;6.90;67.70
21495;DHT22;10909;53.590;10.054;2022-11-20T16:56:37;7.00;67.70
21495;DHT22;10909;53.590;10.054;2022-11-20T16:59:06;6.90;67.70
21495;DHT22;10909;53.590;10.054;2022-11-20T17:01:32;6.90;67.70
21495;DHT22;10909;53.590;10.054;2022-11-20T17:04:04;6.90;67.70
21495;DHT22;10909;53.590;10.054;2022-11-20T17:06:34;6.90;67.70
21495;DHT22;10909;53.590;10.054;2022-11-20T17:09:03;6.90;67.80